sensor_id;sensor_type;location;lat;lon;timestamp;pressure;altitude;pressure_sealevel;temperature;humidity
38253;BME280;24785;52.372;20.672;2022-08-01T00:03:17;100196.38;;;13.96;100.00
38253;BME280;24785;52.372;20.672;2022-08-01T00:13:18;100195.88;;;13.94;100.00
38253;BME280;24785;52.372;20.672;2022-08-01T00:23:19;100190.00;;;13.92;100.00
38253;BME280;24785;52.372;20.672;2022-08-01T00:33:20;100177.84;;;13.67;100.00
38253;BME280;24785;52.372;20.672;2022-08-01T00:43:21;100174.66;;;13.51;100.00
38253;BME280;24785;52.372;20.672;2022-08-01T00:53:21;100176.94;;;13.58;100.00
38253;BME280;24785;52.372;20.672;2022-08-01T01:03:23;100191.69;;;13.61;100.00
38253;BME280;24785;52.372;20.672;2022-08-01T01:14:08;100203.06;;;13.44;100.00
38253;BME280;24785;52.372;20.672;2022-08-01T01:34:17;100178.81;;;12.98;100.00
38253;BME280;24785;52.372;20.672;2022-08-01T01:44:18;100177.03;;;12.74;100.00
38253;BME280;24785;52.372;20.672;2022-08-01T01:54:20;100163.75;;;12.64;100.00
38253;BME280;24785;52.372;20.672;2022-08-01T02:04:22;100158.72;;;12.44;100.00
38253;BME280;24785;52.372;20.672;2022-08-01T02:14:24;100164.66;;;12.22;100.00
38253;BME280;24785;52.372;20.672;2022-08-01T02:24:52;100155.22;;;12.06;100.00
38253;BME280;24785;52.372;20.672;2022-08-01T02:34:56;100159.91;;;11.71;100.00
38253;BME280;24785;52.372;20.672;2022-08-01T02:44:57;100160.03;;;11.61;100.00
38253;BME280;24785;52.372;20.672;2022-08-01T02:54:59;100157.03;;;11.91;100.00
38253;BME280;24785;52.372;20.672;2022-08-01T03:05:02;100158.09;;;11.66;100.00
38253;BME280;24785;52.372;20.672;2022-08-01T03:15:04;100151.31;;;12.17;100.00
38253;BME280;24785;52.372;20.672;2022-08-01T03:25:07;100141.66;;;12.35;100.00
38253;BME280;24785;52.372;20.672;2022-08-01T03:35:08;100147.50;;;12.55;100.00
38253;BME280;24785;52.372;20.672;2022-08-01T03:45:12;100156.84;;;12.77;100.00
38253;BME280;24785;52.372;20.672;2022-08-01T03:55:16;100159.09;;;13.02;100.00
38253;BME280;24785;52.372;20.672;2022-08-01T04:05:19;100167.56;;;13.28;100.00
38253;BME280;24785;52.372;20.672;2022-08-01T04:15:21;100185.59;;;13.28;100.00
38253;BME280;24785;52.372;20.672;2022-08-01T04:25:25;100225.22;;;13.22;100.00
38253;BME280;24785;52.372;20.672;2022-08-01T04:35:29;100244.50;;;13.10;100.00
38253;BME280;24785;52.372;20.672;2022-08-01T04:45:30;100250.44;;;12.93;100.00
38253;BME280;24785;52.372;20.672;2022-08-01T04:55:31;100253.31;;;13.48;100.00
38253;BME280;24785;52.372;20.672;2022-08-01T05:05:32;100327.22;;;14.30;100.00
38253;BME280;24785;52.372;20.672;2022-08-01T05:15:36;100340.00;;;14.24;100.00
38253;BME280;24785;52.372;20.672;2022-08-01T05:25:37;100353.56;;;14.60;100.00
38253;BME280;24785;52.372;20.672;2022-08-01T05:35:39;100363.28;;;14.97;100.00
38253;BME280;24785;52.372;20.672;2022-08-01T05:45:40;100373.56;;;15.09;100.00
38253;BME280;24785;52.372;20.672;2022-08-01T05:55:42;100375.19;;;15.32;100.00
38253;BME280;24785;52.372;20.672;2022-08-01T06:05:43;100382.00;;;15.66;100.00
38253;BME280;24785;52.372;20.672;2022-08-01T06:15:44;100391.13;;;15.79;100.00
38253;BME280;24785;52.372;20.672;2022-08-01T06:25:46;100393.47;;;16.02;100.00
38253;BME280;24785;52.372;20.672;2022-08-01T06:35:48;100390.31;;;16.40;100.00
38253;BME280;24785;52.372;20.672;2022-08-01T06:45:48;100405.44;;;16.50;100.00
38253;BME280;24785;52.372;20.672;2022-08-01T06:55:49;100411.47;;;16.86;100.00
38253;BME280;24785;52.372;20.672;2022-08-01T07:05:50;100411.53;;;17.21;100.00
38253;BME280;24785;52.372;20.672;2022-08-01T07:15:51;100419.53;;;17.52;100.00
38253;BME280;24785;52.372;20.672;2022-08-01T07:25:53;100415.66;;;17.87;100.00
38253;BME280;24785;52.372;20.672;2022-08-01T07:35:54;100423.94;;;17.91;100.00
38253;BME280;24785;52.372;20.672;2022-08-01T07:45:55;100427.72;;;18.16;100.00
38253;BME280;24785;52.372;20.672;2022-08-01T07:55:56;100423.00;;;18.42;100.00
38253;BME280;24785;52.372;20.672;2022-08-01T08:05:56;100425.38;;;18.44;100.00
38253;BME280;24785;52.372;20.672;2022-08-01T08:15:57;100422.47;;;18.87;96.90
38253;BME280;24785;52.372;20.672;2022-08-01T08:26:00;100428.94;;;19.03;92.49
38253;BME280;24785;52.372;20.672;2022-08-01T08:36:01;100430.94;;;19.36;90.75
38253;BME280;24785;52.372;20.672;2022-08-01T08:46:03;100432.69;;;19.61;87.40
38253;BME280;24785;52.372;20.672;2022-08-01T08:56:06;100432.25;;;19.71;87.26
38253;BME280;24785;52.372;20.672;2022-08-01T09:06:08;100438.72;;;20.00;81.24
38253;BME280;24785;52.372;20.672;2022-08-01T09:16:16;100447.94;;;20.20;83.97
38253;BME280;24785;52.372;20.672;2022-08-01T09:26:29;100458.91;;;20.44;82.88
38253;BME280;24785;52.372;20.672;2022-08-01T09:36:48;100461.63;;;20.56;83.02
38253;BME280;24785;52.372;20.672;2022-08-01T09:46:54;100452.34;;;20.69;80.42
38253;BME280;24785;52.372;20.672;2022-08-01T09:57:07;100449.72;;;20.97;76.39
38253;BME280;24785;52.372;20.672;2022-08-01T10:07:08;100461.03;;;21.36;73.96
38253;BME280;24785;52.372;20.672;2022-08-01T10:17:13;100452.41;;;21.34;74.49
38253;BME280;24785;52.372;20.672;2022-08-01T10:27:15;100449.16;;;21.56;73.42
38253;BME280;24785;52.372;20.672;2022-08-01T10:37:17;100440.28;;;21.87;66.27
38253;BME280;24785;52.372;20.672;2022-08-01T10:47:31;100435.41;;;22.09;66.06
38253;BME280;24785;52.372;20.672;2022-08-01T10:57:43;100429.19;;;22.55;69.62
38253;BME280;24785;52.372;20.672;2022-08-01T11:07:52;100422.22;;;23.09;66.39
38253;BME280;24785;52.372;20.672;2022-08-01T11:17:55;100422.91;;;22.86;62.96
38253;BME280;24785;52.372;20.672;2022-08-01T11:38:24;100414.19;;;23.16;63.17
38253;BME280;24785;52.372;20.672;2022-08-01T11:48:26;100412.28;;;23.55;59.40
38253;BME280;24785;52.372;20.672;2022-08-01T11:58:28;100408.13;;;23.07;62.21
38253;BME280;24785;52.372;20.672;2022-08-01T12:08:31;100404.72;;;23.48;59.46
38253;BME280;24785;52.372;20.672;2022-08-01T12:18:41;100417.16;;;23.84;64.73
38253;BME280;24785;52.372;20.672;2022-08-01T12:28:42;100410.41;;;24.01;55.67
38253;BME280;24785;52.372;20.672;2022-08-01T12:38:43;100403.22;;;24.35;57.24
38253;BME280;24785;52.372;20.672;2022-08-01T12:48:44;100400.44;;;24.58;55.89
38253;BME280;24785;52.372;20.672;2022-08-01T12:58:45;100398.28;;;24.44;54.63
38253;BME280;24785;52.372;20.672;2022-08-01T13:08:46;100397.75;;;24.88;54.94
38253;BME280;24785;52.372;20.672;2022-08-01T13:18:51;100402.97;;;24.97;53.52
38253;BME280;24785;52.372;20.672;2022-08-01T13:29:13;100394.25;;;24.15;56.29
38253;BME280;24785;52.372;20.672;2022-08-01T13:39:15;100391.00;;;24.29;55.65
38253;BME280;24785;52.372;20.672;2022-08-01T13:49:34;100397.44;;;24.93;53.80
38253;BME280;24785;52.372;20.672;2022-08-01T13:59:35;100401.53;;;25.06;54.56
38253;BME280;24785;52.372;20.672;2022-08-01T14:09:36;100401.53;;;25.36;51.86
38253;BME280;24785;52.372;20.672;2022-08-01T14:19:37;100416.28;;;25.25;54.26
38253;BME280;24785;52.372;20.672;2022-08-01T14:29:37;100409.91;;;25.81;50.71
38253;BME280;24785;52.372;20.672;2022-08-01T14:39:39;100416.94;;;26.19;50.57
38253;BME280;24785;52.372;20.672;2022-08-01T14:49:40;100428.06;;;25.92;51.25
38253;BME280;24785;52.372;20.672;2022-08-01T14:59:40;100436.88;;;24.85;52.32
38253;BME280;24785;52.372;20.672;2022-08-01T15:09:42;100443.88;;;24.83;53.04
38253;BME280;24785;52.372;20.672;2022-08-01T15:19:43;100447.19;;;24.46;54.76
38253;BME280;24785;52.372;20.672;2022-08-01T15:29:44;100439.50;;;24.29;53.68
38253;BME280;24785;52.372;20.672;2022-08-01T15:39:45;100451.91;;;24.03;56.34
38253;BME280;24785;52.372;20.672;2022-08-01T15:49:46;100443.13;;;23.94;57.41
38253;BME280;24785;52.372;20.672;2022-08-01T15:59:47;100451.81;;;23.58;59.19
38253;BME280;24785;52.372;20.672;2022-08-01T16:09:48;100453.13;;;23.48;58.28
38253;BME280;24785;52.372;20.672;2022-08-01T16:19:48;100456.81;;;23.36;63.14
38253;BME280;24785;52.372;20.672;2022-08-01T16:29:50;100464.16;;;22.97;65.29
38253;BME280;24785;52.372;20.672;2022-08-01T16:39:51;100466.97;;;22.69;69.59
38253;BME280;24785;52.372;20.672;2022-08-01T16:49:51;100459.75;;;22.45;74.88
38253;BME280;24785;52.372;20.672;2022-08-01T16:59:52;100462.03;;;22.27;75.02
38253;BME280;24785;52.372;20.672;2022-08-01T17:09:53;100468.91;;;21.93;82.85
38253;BME280;24785;52.372;20.672;2022-08-01T17:19:54;100466.94;;;21.66;88.88
38253;BME280;24785;52.372;20.672;2022-08-01T17:29:54;100478.53;;;21.35;95.41
38253;BME280;24785;52.372;20.672;2022-08-01T17:39:55;100485.56;;;21.12;98.13
38253;BME280;24785;52.372;20.672;2022-08-01T17:49:56;100489.91;;;20.88;100.00
38253;BME280;24785;52.372;20.672;2022-08-01T17:59:57;100494.19;;;20.65;100.00
38253;BME280;24785;52.372;20.672;2022-08-01T18:09:58;100491.34;;;20.61;100.00
38253;BME280;24785;52.372;20.672;2022-08-01T18:19:58;100485.25;;;20.31;100.00
38253;BME280;24785;52.372;20.672;2022-08-01T18:29:59;100494.72;;;20.01;100.00
38253;BME280;24785;52.372;20.672;2022-08-01T18:40:00;100503.53;;;19.77;100.00
38253;BME280;24785;52.372;20.672;2022-08-01T18:50:01;100512.66;;;19.60;100.00
38253;BME280;24785;52.372;20.672;2022-08-01T19:00:03;100522.97;;;19.46;100.00
38253;BME280;24785;52.372;20.672;2022-08-01T19:10:04;100521.41;;;19.36;100.00
38253;BME280;24785;52.372;20.672;2022-08-01T19:20:05;100517.16;;;19.27;100.00
38253;BME280;24785;52.372;20.672;2022-08-01T19:30:07;100503.22;;;19.07;100.00
38253;BME280;24785;52.372;20.672;2022-08-01T19:40:10;100514.91;;;18.99;100.00
38253;BME280;24785;52.372;20.672;2022-08-01T19:50:11;100509.44;;;18.70;100.00
38253;BME280;24785;52.372;20.672;2022-08-01T20:00:13;100508.03;;;18.64;100.00
38253;BME280;24785;52.372;20.672;2022-08-01T20:10:14;100521.75;;;18.67;100.00
38253;BME280;24785;52.372;20.672;2022-08-01T20:20:16;100505.13;;;18.69;100.00
38253;BME280;24785;52.372;20.672;2022-08-01T20:30:18;100512.81;;;18.58;100.00
38253;BME280;24785;52.372;20.672;2022-08-01T20:40:19;100509.97;;;18.54;100.00
38253;BME280;24785;52.372;20.672;2022-08-01T20:50:20;100504.25;;;18.47;100.00
38253;BME280;24785;52.372;20.672;2022-08-01T21:00:41;100484.66;;;18.24;100.00
38253;BME280;24785;52.372;20.672;2022-08-01T21:10:42;100465.88;;;18.11;100.00
38253;BME280;24785;52.372;20.672;2022-08-01T21:20:52;100462.97;;;18.16;100.00
38253;BME280;24785;52.372;20.672;2022-08-01T21:30:57;100459.47;;;18.15;100.00
38253;BME280;24785;52.372;20.672;2022-08-01T21:41:02;100456.63;;;18.12;100.00
38253;BME280;24785;52.372;20.672;2022-08-01T22:11:32;100463.66;;;18.04;100.00
38253;BME280;24785;52.372;20.672;2022-08-01T22:21:37;100468.44;;;18.07;100.00
38253;BME280;24785;52.372;20.672;2022-08-01T22:31:38;100469.06;;;17.96;100.00
38253;BME280;24785;52.372;20.672;2022-08-01T22:41:43;100472.09;;;17.94;100.00
38253;BME280;24785;52.372;20.672;2022-08-01T23:01:49;100477.38;;;17.82;100.00
38253;BME280;24785;52.372;20.672;2022-08-01T23:11:51;100470.22;;;17.77;100.00
38253;BME280;24785;52.372;20.672;2022-08-01T23:21:52;100454.88;;;17.64;100.00
38253;BME280;24785;52.372;20.672;2022-08-01T23:31:53;100431.00;;;17.57;100.00
38253;BME280;24785;52.372;20.672;2022-08-01T23:41:55;100435.13;;;17.55;100.00
38253;BME280;24785;52.372;20.672;2022-08-01T23:51:56;100450.09;;;17.44;100.00
